sensor_id;sensor_type;location;lat;lon;timestamp;pressure;altitude;pressure_sealevel;temperature;humidity
23589;BME280;11972;48.078;11.876;2023-06-22T00:02:57;95440.88;;;18.86;100.00
23589;BME280;11972;48.078;11.876;2023-06-22T00:06:58;95426.88;;;18.95;100.00
23589;BME280;11972;48.078;11.876;2023-06-22T00:10:59;95411.72;;;19.01;100.00
23589;BME280;11972;48.078;11.876;2023-06-22T00:14:59;95390.78;;;19.09;100.00
23589;BME280;11972;48.078;11.876;2023-06-22T00:19:00;95398.09;;;19.14;100.00
23589;BME280;11972;48.078;11.876;2023-06-22T00:23:03;95401.31;;;19.16;100.00
23589;BME280;11972;48.078;11.876;2023-06-22T00:27:08;95404.69;;;19.23;100.00
23589;BME280;11972;48.078;11.876;2023-06-22T00:31:09;95411.44;;;19.26;100.00
23589;BME280;11972;48.078;11.876;2023-06-22T00:35:09;95415.06;;;19.20;100.00
23589;BME280;11972;48.078;11.876;2023-06-22T00:39:10;95421.59;;;19.12;100.00
23589;BME280;11972;48.078;11.876;2023-06-22T00:43:11;95408.59;;;19.04;100.00
23589;BME280;11972;48.078;11.876;2023-06-22T00:47:13;95412.44;;;18.96;100.00
23589;BME280;11972;48.078;11.876;2023-06-22T00:51:15;95407.59;;;18.93;100.00
23589;BME280;11972;48.078;11.876;2023-06-22T00:55:15;95399.78;;;18.92;100.00
23589;BME280;11972;48.078;11.876;2023-06-22T00:59:18;95397.00;;;18.87;100.00
23589;BME280;11972;48.078;11.876;2023-06-22T01:03:18;95396.66;;;18.83;100.00
23589;BME280;11972;48.078;11.876;2023-06-22T01:07:31;95397.81;;;18.87;100.00
23589;BME280;11972;48.078;11.876;2023-06-22T01:11:37;95395.38;;;18.86;100.00
23589;BME280;11972;48.078;11.876;2023-06-22T01:16:05;95389.56;;;18.89;100.00
23589;BME280;11972;48.078;11.876;2023-06-22T01:20:08;95389.66;;;18.94;100.00
23589;BME280;11972;48.078;11.876;2023-06-22T01:24:45;95380.44;;;19.01;100.00
23589;BME280;11972;48.078;11.876;2023-06-22T01:28:50;95381.34;;;19.07;100.00
23589;BME280;11972;48.078;11.876;2023-06-22T01:32:54;95384.28;;;19.05;100.00
23589;BME280;11972;48.078;11.876;2023-06-22T01:36:56;95383.13;;;19.01;100.00
23589;BME280;11972;48.078;11.876;2023-06-22T01:40:58;95375.78;;;18.97;100.00
23589;BME280;11972;48.078;11.876;2023-06-22T01:44:59;95369.78;;;18.90;100.00
23589;BME280;11972;48.078;11.876;2023-06-22T01:49:02;95369.78;;;18.90;100.00
23589;BME280;11972;48.078;11.876;2023-06-22T01:53:02;95356.06;;;18.86;100.00
23589;BME280;11972;48.078;11.876;2023-06-22T01:57:03;95349.31;;;18.83;100.00
23589;BME280;11972;48.078;11.876;2023-06-22T02:01:09;95343.94;;;18.83;100.00
23589;BME280;11972;48.078;11.876;2023-06-22T02:05:11;95337.19;;;18.93;100.00
23589;BME280;11972;48.078;11.876;2023-06-22T02:09:17;95342.84;;;18.96;100.00
23589;BME280;11972;48.078;11.876;2023-06-22T02:13:18;95335.53;;;18.92;100.00
23589;BME280;11972;48.078;11.876;2023-06-22T02:17:19;95341.72;;;18.92;100.00
23589;BME280;11972;48.078;11.876;2023-06-22T02:21:20;95340.56;;;18.88;100.00
23589;BME280;11972;48.078;11.876;2023-06-22T02:25:21;95347.66;;;18.94;100.00
23589;BME280;11972;48.078;11.876;2023-06-22T02:29:21;95352.75;;;18.96;100.00
23589;BME280;11972;48.078;11.876;2023-06-22T02:33:22;95344.50;;;18.97;100.00
23589;BME280;11972;48.078;11.876;2023-06-22T02:37:22;95345.06;;;18.99;100.00
23589;BME280;11972;48.078;11.876;2023-06-22T02:41:25;95355.03;;;19.04;100.00
23589;BME280;11972;48.078;11.876;2023-06-22T02:45:25;95357.50;;;19.05;100.00
23589;BME280;11972;48.078;11.876;2023-06-22T02:49:25;95360.41;;;19.04;100.00
23589;BME280;11972;48.078;11.876;2023-06-22T02:53:26;95371.41;;;18.91;100.00
23589;BME280;11972;48.078;11.876;2023-06-22T02:57:26;95379.69;;;18.77;100.00
23589;BME280;11972;48.078;11.876;2023-06-22T03:01:27;95378.88;;;18.77;100.00
23589;BME280;11972;48.078;11.876;2023-06-22T03:05:27;95378.63;;;18.67;100.00
23589;BME280;11972;48.078;11.876;2023-06-22T03:09:28;95394.25;;;18.58;100.00
23589;BME280;11972;48.078;11.876;2023-06-22T03:13:28;95391.22;;;18.43;100.00
23589;BME280;11972;48.078;11.876;2023-06-22T03:17:29;95393.91;;;18.31;100.00
23589;BME280;11972;48.078;11.876;2023-06-22T03:21:29;95391.72;;;18.16;100.00
23589;BME280;11972;48.078;11.876;2023-06-22T03:25:29;95395.56;;;18.08;100.00
23589;BME280;11972;48.078;11.876;2023-06-22T03:29:30;95389.84;;;18.05;100.00
23589;BME280;11972;48.078;11.876;2023-06-22T03:33:30;95392.41;;;18.00;100.00
23589;BME280;11972;48.078;11.876;2023-06-22T03:37:30;95388.56;;;17.96;100.00
23589;BME280;11972;48.078;11.876;2023-06-22T03:41:31;95387.78;;;17.95;100.00
23589;BME280;11972;48.078;11.876;2023-06-22T03:45:31;95385.91;;;17.96;100.00
23589;BME280;11972;48.078;11.876;2023-06-22T03:49:32;95383.78;;;17.98;100.00
23589;BME280;11972;48.078;11.876;2023-06-22T03:53:32;95389.28;;;18.03;100.00
23589;BME280;11972;48.078;11.876;2023-06-22T03:57:32;95396.00;;;18.05;100.00
23589;BME280;11972;48.078;11.876;2023-06-22T04:01:33;95397.16;;;18.09;100.00
23589;BME280;11972;48.078;11.876;2023-06-22T04:05:33;95390.09;;;18.15;100.00
23589;BME280;11972;48.078;11.876;2023-06-22T04:09:33;95384.97;;;18.25;100.00
23589;BME280;11972;48.078;11.876;2023-06-22T04:13:34;95385.22;;;18.35;100.00
23589;BME280;11972;48.078;11.876;2023-06-22T04:17:34;95394.84;;;18.48;100.00
23589;BME280;11972;48.078;11.876;2023-06-22T04:21:34;95391.19;;;18.66;100.00
23589;BME280;11972;48.078;11.876;2023-06-22T04:25:35;95394.78;;;18.83;100.00
23589;BME280;11972;48.078;11.876;2023-06-22T04:29:35;95395.09;;;18.99;100.00
23589;BME280;11972;48.078;11.876;2023-06-22T04:33:35;95393.28;;;19.16;100.00
23589;BME280;11972;48.078;11.876;2023-06-22T04:37:36;95387.75;;;19.34;100.00
23589;BME280;11972;48.078;11.876;2023-06-22T04:41:37;95384.84;;;19.53;100.00
23589;BME280;11972;48.078;11.876;2023-06-22T04:45:43;95384.50;;;19.78;100.00
23589;BME280;11972;48.078;11.876;2023-06-22T04:49:44;95381.41;;;20.03;100.00
23589;BME280;11972;48.078;11.876;2023-06-22T04:53:44;95384.16;;;20.25;100.00
23589;BME280;11972;48.078;11.876;2023-06-22T04:57:45;95384.69;;;20.44;100.00
23589;BME280;11972;48.078;11.876;2023-06-22T05:01:48;95382.25;;;20.59;100.00
23589;BME280;11972;48.078;11.876;2023-06-22T05:05:52;95369.66;;;20.81;100.00
23589;BME280;11972;48.078;11.876;2023-06-22T05:09:52;95371.53;;;21.03;100.00
23589;BME280;11972;48.078;11.876;2023-06-22T05:13:53;95370.69;;;21.24;100.00
23589;BME280;11972;48.078;11.876;2023-06-22T05:17:54;95363.31;;;21.37;100.00
23589;BME280;11972;48.078;11.876;2023-06-22T05:21:54;95359.41;;;21.49;100.00
23589;BME280;11972;48.078;11.876;2023-06-22T05:25:54;95361.31;;;21.54;100.00
23589;BME280;11972;48.078;11.876;2023-06-22T05:29:57;95355.94;;;21.54;100.00
23589;BME280;11972;48.078;11.876;2023-06-22T05:33:57;95360.41;;;21.70;100.00
23589;BME280;11972;48.078;11.876;2023-06-22T05:37:59;95353.81;;;21.88;100.00
23589;BME280;11972;48.078;11.876;2023-06-22T05:42:00;95353.22;;;22.13;100.00
23589;BME280;11972;48.078;11.876;2023-06-22T05:46:01;95359.78;;;22.27;100.00
23589;BME280;11972;48.078;11.876;2023-06-22T05:50:02;95355.03;;;22.45;100.00
23589;BME280;11972;48.078;11.876;2023-06-22T05:54:06;95360.50;;;22.60;100.00
23589;BME280;11972;48.078;11.876;2023-06-22T05:58:08;95349.75;;;22.70;100.00
23589;BME280;11972;48.078;11.876;2023-06-22T06:02:09;95351.50;;;22.92;100.00
23589;BME280;11972;48.078;11.876;2023-06-22T06:06:09;95357.00;;;23.17;100.00
23589;BME280;11972;48.078;11.876;2023-06-22T06:10:11;95362.09;;;23.24;100.00
23589;BME280;11972;48.078;11.876;2023-06-22T06:14:11;95357.00;;;23.27;100.00
23589;BME280;11972;48.078;11.876;2023-06-22T06:18:11;95348.91;;;23.33;100.00
23589;BME280;11972;48.078;11.876;2023-06-22T06:22:12;95346.25;;;23.48;100.00
23589;BME280;11972;48.078;11.876;2023-06-22T06:26:12;95348.16;;;23.63;100.00
23589;BME280;11972;48.078;11.876;2023-06-22T06:30:14;95349.56;;;23.81;100.00
23589;BME280;11972;48.078;11.876;2023-06-22T06:34:15;95343.09;;;23.92;100.00
23589;BME280;11972;48.078;11.876;2023-06-22T06:38:15;95339.00;;;24.10;100.00
23589;BME280;11972;48.078;11.876;2023-06-22T06:42:15;95337.13;;;24.41;100.00
23589;BME280;11972;48.078;11.876;2023-06-22T06:46:15;95334.91;;;24.53;100.00
23589;BME280;11972;48.078;11.876;2023-06-22T06:50:16;95343.53;;;24.65;100.00
23589;BME280;11972;48.078;11.876;2023-06-22T06:54:17;95333.19;;;24.83;100.00
23589;BME280;11972;48.078;11.876;2023-06-22T06:58:20;95332.59;;;24.96;100.00
23589;BME280;11972;48.078;11.876;2023-06-22T07:02:23;95330.66;;;25.07;100.00
23589;BME280;11972;48.078;11.876;2023-06-22T07:06:24;95343.06;;;25.13;100.00
23589;BME280;11972;48.078;11.876;2023-06-22T07:10:29;95339.22;;;25.24;100.00
23589;BME280;11972;48.078;11.876;2023-06-22T07:14:29;95342.41;;;25.36;100.00
23589;BME280;11972;48.078;11.876;2023-06-22T07:18:31;95340.41;;;25.52;100.00
23589;BME280;11972;48.078;11.876;2023-06-22T07:22:32;95338.72;;;25.61;100.00
23589;BME280;11972;48.078;11.876;2023-06-22T07:26:33;95336.81;;;25.62;100.00
23589;BME280;11972;48.078;11.876;2023-06-22T07:30:33;95339.78;;;25.65;100.00
23589;BME280;11972;48.078;11.876;2023-06-22T07:34:34;95341.88;;;25.73;100.00
23589;BME280;11972;48.078;11.876;2023-06-22T07:38:34;95336.19;;;25.80;100.00
23589;BME280;11972;48.078;11.876;2023-06-22T07:42:38;95333.63;;;25.94;100.00
23589;BME280;11972;48.078;11.876;2023-06-22T07:46:38;95321.00;;;26.13;100.00
23589;BME280;11972;48.078;11.876;2023-06-22T07:50:38;95311.25;;;26.12;100.00
23589;BME280;11972;48.078;11.876;2023-06-22T07:54:39;95315.53;;;26.18;100.00
23589;BME280;11972;48.078;11.876;2023-06-22T07:58:39;95321.78;;;26.43;100.00
23589;BME280;11972;48.078;11.876;2023-06-22T08:02:41;95319.94;;;26.67;100.00
23589;BME280;11972;48.078;11.876;2023-06-22T08:06:41;95318.22;;;26.95;100.00
23589;BME280;11972;48.078;11.876;2023-06-22T08:10:42;95324.44;;;27.20;100.00
23589;BME280;11972;48.078;11.876;2023-06-22T08:14:43;95320.63;;;27.21;100.00
23589;BME280;11972;48.078;11.876;2023-06-22T08:18:44;95324.88;;;27.46;100.00
23589;BME280;11972;48.078;11.876;2023-06-22T08:22:45;95321.94;;;27.61;100.00
23589;BME280;11972;48.078;11.876;2023-06-22T08:26:45;95321.66;;;27.82;100.00
23589;BME280;11972;48.078;11.876;2023-06-22T08:30:46;95314.91;;;28.12;100.00
23589;BME280;11972;48.078;11.876;2023-06-22T08:34:46;95321.47;;;28.25;100.00
23589;BME280;11972;48.078;11.876;2023-06-22T08:38:47;95311.16;;;28.54;100.00
23589;BME280;11972;48.078;11.876;2023-06-22T08:42:51;95311.38;;;28.85;100.00
23589;BME280;11972;48.078;11.876;2023-06-22T08:46:51;95308.63;;;29.13;100.00
23589;BME280;11972;48.078;11.876;2023-06-22T08:50:52;95307.00;;;29.26;100.00
23589;BME280;11972;48.078;11.876;2023-06-22T08:54:52;95307.25;;;29.02;100.00
23589;BME280;11972;48.078;11.876;2023-06-22T08:58:53;95304.78;;;29.28;100.00
23589;BME280;11972;48.078;11.876;2023-06-22T09:02:53;95310.88;;;29.83;100.00
23589;BME280;11972;48.078;11.876;2023-06-22T09:06:53;95309.19;;;30.19;100.00
23589;BME280;11972;48.078;11.876;2023-06-22T09:10:54;95307.44;;;30.23;100.00
23589;BME280;11972;48.078;11.876;2023-06-22T09:14:54;95305.47;;;30.37;100.00
23589;BME280;11972;48.078;11.876;2023-06-22T09:18:54;95307.28;;;30.50;100.00
23589;BME280;11972;48.078;11.876;2023-06-22T09:22:54;95298.69;;;30.65;100.00
23589;BME280;11972;48.078;11.876;2023-06-22T09:26:55;95300.13;;;30.72;100.00
23589;BME280;11972;48.078;11.876;2023-06-22T09:30:55;95295.44;;;30.63;100.00
23589;BME280;11972;48.078;11.876;2023-06-22T09:34:58;95292.75;;;30.72;100.00
23589;BME280;11972;48.078;11.876;2023-06-22T09:38:58;95292.66;;;30.86;100.00
23589;BME280;11972;48.078;11.876;2023-06-22T09:42:59;95282.91;;;31.02;100.00
23589;BME280;11972;48.078;11.876;2023-06-22T09:46:59;95277.00;;;31.18;100.00
23589;BME280;11972;48.078;11.876;2023-06-22T09:51:00;95283.78;;;31.29;100.00
23589;BME280;11972;48.078;11.876;2023-06-22T09:55:00;95277.38;;;31.33;100.00
23589;BME280;11972;48.078;11.876;2023-06-22T09:59:00;95280.91;;;31.34;100.00
23589;BME280;11972;48.078;11.876;2023-06-22T10:03:01;95284.94;;;31.36;100.00
23589;BME280;11972;48.078;11.876;2023-06-22T10:07:02;95274.97;;;31.41;100.00
23589;BME280;11972;48.078;11.876;2023-06-22T10:11:03;95275.94;;;31.36;100.00
23589;BME280;11972;48.078;11.876;2023-06-22T10:15:04;95276.41;;;31.38;100.00
23589;BME280;11972;48.078;11.876;2023-06-22T10:19:05;95269.19;;;31.51;100.00
23589;BME280;11972;48.078;11.876;2023-06-22T10:23:05;95258.75;;;31.70;100.00
23589;BME280;11972;48.078;11.876;2023-06-22T10:27:06;95254.41;;;31.78;100.00
23589;BME280;11972;48.078;11.876;2023-06-22T10:31:07;95248.75;;;31.83;100.00
23589;BME280;11972;48.078;11.876;2023-06-22T10:35:07;95242.53;;;31.74;100.00
23589;BME280;11972;48.078;11.876;2023-06-22T10:39:08;95234.34;;;31.65;100.00
23589;BME280;11972;48.078;11.876;2023-06-22T10:43:08;95238.66;;;31.75;100.00
23589;BME280;11972;48.078;11.876;2023-06-22T10:47:09;95232.72;;;31.90;100.00
23589;BME280;11972;48.078;11.876;2023-06-22T10:51:09;95226.22;;;32.12;100.00
23589;BME280;11972;48.078;11.876;2023-06-22T10:55:10;95226.56;;;32.10;100.00
23589;BME280;11972;48.078;11.876;2023-06-22T10:59:10;95227.63;;;32.27;100.00
23589;BME280;11972;48.078;11.876;2023-06-22T11:03:11;95227.25;;;32.37;100.00
23589;BME280;11972;48.078;11.876;2023-06-22T11:07:12;95226.25;;;32.50;100.00
23589;BME280;11972;48.078;11.876;2023-06-22T11:11:12;95216.63;;;32.74;100.00
23589;BME280;11972;48.078;11.876;2023-06-22T11:15:12;95219.19;;;32.79;100.00
23589;BME280;11972;48.078;11.876;2023-06-22T11:19:13;95210.91;;;32.96;100.00
23589;BME280;11972;48.078;11.876;2023-06-22T11:23:13;95208.44;;;33.24;100.00
23589;BME280;11972;48.078;11.876;2023-06-22T11:27:13;95194.56;;;33.50;100.00
23589;BME280;11972;48.078;11.876;2023-06-22T11:31:14;95189.06;;;34.17;100.00
23589;BME280;11972;48.078;11.876;2023-06-22T11:35:14;95188.84;;;34.59;100.00
23589;BME280;11972;48.078;11.876;2023-06-22T11:39:14;95197.75;;;34.80;100.00
23589;BME280;11972;48.078;11.876;2023-06-22T11:43:15;95192.09;;;35.13;100.00
23589;BME280;11972;48.078;11.876;2023-06-22T11:47:15;95178.88;;;35.43;100.00
23589;BME280;11972;48.078;11.876;2023-06-22T11:51:16;95181.31;;;35.61;100.00
23589;BME280;11972;48.078;11.876;2023-06-22T11:55:16;95172.56;;;35.15;100.00
23589;BME280;11972;48.078;11.876;2023-06-22T11:59:16;95174.44;;;34.98;100.00
23589;BME280;11972;48.078;11.876;2023-06-22T12:03:17;95168.94;;;34.98;100.00
23589;BME280;11972;48.078;11.876;2023-06-22T12:07:18;95168.97;;;34.74;100.00
23589;BME280;11972;48.078;11.876;2023-06-22T12:11:18;95170.97;;;34.89;100.00
23589;BME280;11972;48.078;11.876;2023-06-22T12:15:18;95158.09;;;34.90;100.00
23589;BME280;11972;48.078;11.876;2023-06-22T12:19:19;95145.06;;;34.74;100.00
23589;BME280;11972;48.078;11.876;2023-06-22T12:23:19;95143.63;;;34.16;100.00
23589;BME280;11972;48.078;11.876;2023-06-22T12:27:19;95135.59;;;34.35;100.00
23589;BME280;11972;48.078;11.876;2023-06-22T12:31:20;95127.25;;;34.44;100.00
23589;BME280;11972;48.078;11.876;2023-06-22T12:35:20;95124.19;;;34.08;100.00
23589;BME280;11972;48.078;11.876;2023-06-22T12:39:20;95119.84;;;34.44;100.00
23589;BME280;11972;48.078;11.876;2023-06-22T12:43:21;95118.06;;;34.89;100.00
23589;BME280;11972;48.078;11.876;2023-06-22T12:47:21;95114.94;;;35.15;100.00
23589;BME280;11972;48.078;11.876;2023-06-22T12:51:22;95105.06;;;35.42;100.00
23589;BME280;11972;48.078;11.876;2023-06-22T12:55:23;95101.00;;;35.08;100.00
23589;BME280;11972;48.078;11.876;2023-06-22T12:59:23;95101.69;;;35.04;100.00
23589;BME280;11972;48.078;11.876;2023-06-22T13:03:23;95099.47;;;34.82;100.00
23589;BME280;11972;48.078;11.876;2023-06-22T13:07:25;95096.13;;;34.76;100.00
23589;BME280;11972;48.078;11.876;2023-06-22T13:11:26;95100.34;;;35.26;100.00
23589;BME280;11972;48.078;11.876;2023-06-22T13:15:28;95100.81;;;35.88;100.00
23589;BME280;11972;48.078;11.876;2023-06-22T13:19:28;95100.75;;;36.67;100.00
23589;BME280;11972;48.078;11.876;2023-06-22T13:23:32;95106.97;;;37.58;96.94
23589;BME280;11972;48.078;11.876;2023-06-22T13:27:34;95091.16;;;37.35;91.98
23589;BME280;11972;48.078;11.876;2023-06-22T13:31:34;95095.59;;;37.01;93.29
23589;BME280;11972;48.078;11.876;2023-06-22T13:35:34;95084.53;;;37.17;94.06
23589;BME280;11972;48.078;11.876;2023-06-22T13:39:37;95082.75;;;37.28;92.52
23589;BME280;11972;48.078;11.876;2023-06-22T13:43:38;95072.00;;;37.85;93.84
23589;BME280;11972;48.078;11.876;2023-06-22T13:47:38;95069.13;;;38.01;90.70
23589;BME280;11972;48.078;11.876;2023-06-22T13:51:39;95071.69;;;37.67;90.56
23589;BME280;11972;48.078;11.876;2023-06-22T13:55:39;95079.75;;;36.78;90.13
23589;BME280;11972;48.078;11.876;2023-06-22T13:59:39;95071.63;;;37.21;93.93
23589;BME280;11972;48.078;11.876;2023-06-22T14:03:40;95079.56;;;37.26;89.37
23589;BME280;11972;48.078;11.876;2023-06-22T14:07:40;95072.34;;;37.18;88.63
23589;BME280;11972;48.078;11.876;2023-06-22T14:11:40;95063.13;;;37.72;88.95
23589;BME280;11972;48.078;11.876;2023-06-22T14:15:41;95059.84;;;37.24;86.97
23589;BME280;11972;48.078;11.876;2023-06-22T14:19:41;95049.66;;;37.67;86.49
23589;BME280;11972;48.078;11.876;2023-06-22T14:23:41;95039.47;;;38.17;84.81
23589;BME280;11972;48.078;11.876;2023-06-22T14:27:42;95035.72;;;38.85;84.98
23589;BME280;11972;48.078;11.876;2023-06-22T14:31:45;95042.88;;;38.33;77.78
23589;BME280;11972;48.078;11.876;2023-06-22T14:35:46;95032.38;;;38.42;81.26
23589;BME280;11972;48.078;11.876;2023-06-22T14:39:47;95036.97;;;38.08;75.83
23589;BME280;11972;48.078;11.876;2023-06-22T14:43:48;95021.91;;;38.29;81.36
23589;BME280;11972;48.078;11.876;2023-06-22T14:47:49;95017.28;;;38.63;77.26
23589;BME280;11972;48.078;11.876;2023-06-22T14:51:50;95015.91;;;37.96;75.66
23589;BME280;11972;48.078;11.876;2023-06-22T14:55:50;95016.59;;;37.67;82.24
23589;BME280;11972;48.078;11.876;2023-06-22T14:59:50;95008.84;;;37.49;78.34
23589;BME280;11972;48.078;11.876;2023-06-22T15:03:51;95001.97;;;37.86;77.88
23589;BME280;11972;48.078;11.876;2023-06-22T15:07:51;94998.91;;;37.91;76.43
23589;BME280;11972;48.078;11.876;2023-06-22T15:11:51;94989.25;;;37.55;71.66
23589;BME280;11972;48.078;11.876;2023-06-22T15:15:53;94988.53;;;37.84;74.24
23589;BME280;11972;48.078;11.876;2023-06-22T15:19:53;94980.53;;;38.85;66.58
23589;BME280;11972;48.078;11.876;2023-06-22T15:23:53;94965.53;;;39.64;66.06
23589;BME280;11972;48.078;11.876;2023-06-22T15:27:54;94962.56;;;40.50;60.64
23589;BME280;11972;48.078;11.876;2023-06-22T15:31:54;94956.63;;;40.48;58.11
23589;BME280;11972;48.078;11.876;2023-06-22T15:35:54;94939.84;;;40.99;59.57
23589;BME280;11972;48.078;11.876;2023-06-22T15:39:55;94945.03;;;41.33;56.64
23589;BME280;11972;48.078;11.876;2023-06-22T15:43:58;94931.22;;;41.83;53.52
23589;BME280;11972;48.078;11.876;2023-06-22T15:47:59;94920.50;;;41.38;47.31
23589;BME280;11972;48.078;11.876;2023-06-22T15:51:59;94923.28;;;41.24;50.62
23589;BME280;11972;48.078;11.876;2023-06-22T15:55:59;94907.06;;;41.51;52.25
23589;BME280;11972;48.078;11.876;2023-06-22T16:00:00;94899.53;;;41.95;51.30
23589;BME280;11972;48.078;11.876;2023-06-22T16:04:00;94909.84;;;41.83;52.65
23589;BME280;11972;48.078;11.876;2023-06-22T16:08:02;94902.31;;;41.87;50.67
23589;BME280;11972;48.078;11.876;2023-06-22T16:12:02;94907.00;;;42.26;50.54
23589;BME280;11972;48.078;11.876;2023-06-22T16:16:03;94905.19;;;42.75;49.48
23589;BME280;11972;48.078;11.876;2023-06-22T16:20:07;94909.00;;;43.10;46.46
23589;BME280;11972;48.078;11.876;2023-06-22T16:24:08;94904.41;;;42.78;45.02
23589;BME280;11972;48.078;11.876;2023-06-22T16:28:08;94889.19;;;43.01;46.31
23589;BME280;11972;48.078;11.876;2023-06-22T16:32:08;94880.28;;;42.61;45.15
23589;BME280;11972;48.078;11.876;2023-06-22T16:36:09;94867.06;;;41.63;47.56
23589;BME280;11972;48.078;11.876;2023-06-22T16:40:09;94853.91;;;39.76;53.01
23589;BME280;11972;48.078;11.876;2023-06-22T16:44:12;94823.41;;;37.98;64.04
23589;BME280;11972;48.078;11.876;2023-06-22T16:48:12;94774.47;;;36.59;73.15
23589;BME280;11972;48.078;11.876;2023-06-22T16:52:13;94723.25;;;35.50;83.81
23589;BME280;11972;48.078;11.876;2023-06-22T16:56:13;94765.84;;;34.46;91.24
23589;BME280;11972;48.078;11.876;2023-06-22T17:00:14;94828.84;;;33.62;97.27
23589;BME280;11972;48.078;11.876;2023-06-22T17:04:16;94844.16;;;33.01;100.00
23589;BME280;11972;48.078;11.876;2023-06-22T17:08:18;94852.63;;;32.51;100.00
23589;BME280;11972;48.078;11.876;2023-06-22T17:12:19;94848.16;;;31.92;100.00
23589;BME280;11972;48.078;11.876;2023-06-22T17:16:24;94836.66;;;31.36;100.00
23589;BME280;11972;48.078;11.876;2023-06-22T17:20:26;94834.00;;;30.89;100.00
23589;BME280;11972;48.078;11.876;2023-06-22T17:24:26;94836.31;;;30.61;100.00
23589;BME280;11972;48.078;11.876;2023-06-22T17:28:27;94896.00;;;30.28;100.00
23589;BME280;11972;48.078;11.876;2023-06-22T17:32:29;94942.16;;;29.01;100.00
23589;BME280;11972;48.078;11.876;2023-06-22T17:36:30;94991.03;;;27.01;100.00
23589;BME280;11972;48.078;11.876;2023-06-22T17:40:30;95020.06;;;26.11;100.00
23589;BME280;11972;48.078;11.876;2023-06-22T17:44:30;95001.28;;;23.48;100.00
23589;BME280;11972;48.078;11.876;2023-06-22T17:48:32;94998.22;;;22.34;100.00
23589;BME280;11972;48.078;11.876;2023-06-22T17:52:32;94990.88;;;21.88;100.00
23589;BME280;11972;48.078;11.876;2023-06-22T17:56:33;95018.47;;;21.58;100.00
23589;BME280;11972;48.078;11.876;2023-06-22T18:00:33;95020.56;;;21.41;100.00
23589;BME280;11972;48.078;11.876;2023-06-22T18:04:33;95063.50;;;20.98;100.00
23589;BME280;11972;48.078;11.876;2023-06-22T18:08:34;95076.22;;;20.44;100.00
23589;BME280;11972;48.078;11.876;2023-06-22T18:12:36;95054.22;;;20.42;100.00
23589;BME280;11972;48.078;11.876;2023-06-22T18:16:36;94985.69;;;20.61;100.00
23589;BME280;11972;48.078;11.876;2023-06-22T18:20:39;95008.31;;;20.70;100.00
23589;BME280;11972;48.078;11.876;2023-06-22T18:24:40;95054.34;;;20.89;100.00
23589;BME280;11972;48.078;11.876;2023-06-22T18:28:40;95065.97;;;20.63;100.00
23589;BME280;11972;48.078;11.876;2023-06-22T18:32:41;95038.13;;;20.42;100.00
23589;BME280;11972;48.078;11.876;2023-06-22T18:36:46;95028.66;;;20.34;100.00
23589;BME280;11972;48.078;11.876;2023-06-22T18:40:49;95038.13;;;20.42;100.00
23589;BME280;11972;48.078;11.876;2023-06-22T18:44:53;95033.75;;;20.63;100.00
23589;BME280;11972;48.078;11.876;2023-06-22T18:48:59;95041.50;;;20.59;100.00
23589;BME280;11972;48.078;11.876;2023-06-22T18:53:03;95038.88;;;20.69;100.00
23589;BME280;11972;48.078;11.876;2023-06-22T18:57:24;95036.75;;;20.66;100.00
23589;BME280;11972;48.078;11.876;2023-06-22T19:01:26;95027.06;;;20.65;100.00
23589;BME280;11972;48.078;11.876;2023-06-22T19:05:40;95033.59;;;20.74;100.00
23589;BME280;11972;48.078;11.876;2023-06-22T19:09:41;95026.50;;;20.63;100.00
23589;BME280;11972;48.078;11.876;2023-06-22T19:13:45;95025.19;;;20.33;100.00
23589;BME280;11972;48.078;11.876;2023-06-22T19:17:48;95028.53;;;20.19;100.00
23589;BME280;11972;48.078;11.876;2023-06-22T19:21:57;95025.00;;;20.13;100.00
23589;BME280;11972;48.078;11.876;2023-06-22T19:25:58;95014.44;;;20.33;100.00
23589;BME280;11972;48.078;11.876;2023-06-22T19:30:01;95016.50;;;20.21;100.00
23589;BME280;11972;48.078;11.876;2023-06-22T19:34:03;95015.38;;;20.17;100.00
23589;BME280;11972;48.078;11.876;2023-06-22T19:38:08;95051.03;;;19.91;100.00
23589;BME280;11972;48.078;11.876;2023-06-22T19:42:09;95072.19;;;19.65;100.00
23589;BME280;11972;48.078;11.876;2023-06-22T19:46:09;95071.72;;;19.51;100.00
23589;BME280;11972;48.078;11.876;2023-06-22T19:50:10;95094.00;;;19.57;100.00
23589;BME280;11972;48.078;11.876;2023-06-22T19:54:10;95106.09;;;19.59;100.00
23589;BME280;11972;48.078;11.876;2023-06-22T19:58:14;95124.53;;;19.56;100.00
23589;BME280;11972;48.078;11.876;2023-06-22T20:02:15;95143.44;;;19.66;100.00
23589;BME280;11972;48.078;11.876;2023-06-22T20:06:16;95147.78;;;19.67;100.00
23589;BME280;11972;48.078;11.876;2023-06-22T20:10:19;95118.91;;;19.74;100.00
23589;BME280;11972;48.078;11.876;2023-06-22T20:14:19;95138.34;;;19.87;100.00
23589;BME280;11972;48.078;11.876;2023-06-22T20:18:22;95126.31;;;19.89;100.00
23589;BME280;11972;48.078;11.876;2023-06-22T20:22:22;95135.81;;;19.97;100.00
23589;BME280;11972;48.078;11.876;2023-06-22T20:26:22;95096.94;;;20.21;100.00
23589;BME280;11972;48.078;11.876;2023-06-22T20:30:23;95093.38;;;20.43;100.00
23589;BME280;11972;48.078;11.876;2023-06-22T20:34:25;95091.88;;;20.52;100.00
23589;BME280;11972;48.078;11.876;2023-06-22T20:38:26;95106.97;;;20.58;100.00
23589;BME280;11972;48.078;11.876;2023-06-22T20:42:28;95157.88;;;20.53;100.00
23589;BME280;11972;48.078;11.876;2023-06-22T20:46:28;95147.44;;;20.29;100.00
23589;BME280;11972;48.078;11.876;2023-06-22T20:50:30;95150.19;;;20.13;100.00